Valle Grande, Bolivia
Current Conditions -  °F | °C
As of 7:00 PM on Monday 22 Dec 2014 (Local Time) from SLET Reporting Station
Broken Clouds Broken Clouds  
Wind Chill: 68°   Ceiling: 2300
Heat Index: 68°   Visibility: 6mi
Dew Point: 61°   Wind: 12mph
Humidity: 78%   Direction: 150°SSE
Pressure: 29.91"   Gusts: 23mph
Location:  18.49°S, 64.11°W
Report Text: SLET 222300Z 15010G20KT 9999 BKN023 BKN070 20/16 Q1013
Loading
Personal Weather Stations






























Interactive Weather Map New forecast layout! Learn more

10-Day Weather Forecast

Advertisements
Track Severe Weather on mobile